Overview Statistics Trail Chart Weather Telemetry Raw packets
 

This is the latest recevied weather packets stored in our database for station/object DK6GC-10. If no packets are shown the sender has not sent any weather packets the latest 10 day(s).

<< 1 2 3 4 5 6 >>
Time Temp. Humidity Pressure Rain* Wind** Luminosity Snow
1788665423 13.89° C 71% 1027.4 hPa - - - -
1788664523 13.33° C 74% 1027.5 hPa - - - -
1788663623 12.22° C 81% 1027.4 hPa - - - -
1788661822 11.67° C 84% 1027.5 hPa - - - -
1788660922 12.22° C 83% 1027.5 hPa - - - -
1788660022 12.22° C 82% 1027.4 hPa - - - -
1788659122 12.22° C 79% 1027.5 hPa - - - -
1788658222 12.78° C 78% 1027.4 hPa - - - -
1788657321 13.89° C 73% 1027.5 hPa - - - -
1788656421 12.78° C 78% 1027.5 hPa - - - -
1788655520 13.33° C 75% 1027.5 hPa - - - -
1788654620 14.44° C 70% 1027.5 hPa - - - -
1788653720 13.89° C 71% 1027.5 hPa - - - -
1788652824 13.33° C 70% 1027.4 hPa - - - -
1788651924 13.33° C 76% 1027.6 hPa - - - -
1788651042 13.89° C 73% 1027.4 hPa - - - -
1788650124 14.44° C 68% 1027.5 hPa - - - -
1788649223 16.67° C 55% 1027.5 hPa - - - -
1788648323 14.44° C 66% 1027.4 hPa - - - -
1788647423 13.89° C 72% 1027.3 hPa - - - -
1788646523 13.33° C 73% 1027.1 hPa - - - -
1788645623 13.89° C 72% 1027 hPa - - - -
1788644723 15° C 65% 1026.9 hPa - - - -
1788643822 14.44° C 71% 1027 hPa - - - -
1788642953 14.44° C 70% 1026.9 hPa - - - -

* Rain since midnight (hover to see other rain measurements)
** Current wind speed in m/s (hover to see current wind gust speed)